メインページ
METAR-TAF:

METAR-TAF

空港 :

Terrace, ブリティッシュコロンビア州, カナダ

緯度: 54-28N, 経度: 128-35W, 海抜: 217m

現時点の気象観測

当レポートは1時間12分前の12:00(UTC)に作成
南/南西の風 15kt、最大24ktの突風を伴う
気温 2°C
湿度 93%
気圧 1012 hPa
視程: 16.1km
高度400ftの雲はほとんどない
高度800ftの雲は散在している
高度1600ftの千切れ雲あり
高度4000ftの曇り

METAR: CYXT 201200Z 20015G24KT 10SM FEW004 SCT008 BKN016 OVC040 02/01 A2989 RMK SF1SC3SC2SC2 SLP133

時間: 05:12 (13:12 UTC)

予報

当レポートは34分前の12:38(UTC)に作成
予報は20日の 13時(UTC)から 21日の 01時(UTC)まで有効
の風 15kt、最大25ktの突風を伴う
視程: 10km
高度600ftの雲は散在している
高度1500ftの雲は散在している
高度4000ftの曇り
20日の 13時(UTC)から 20日の 18時(UTC)まで一時的に
視程: 8.0km
高度600ftの千切れ雲あり
高度1500ftの千切れ雲あり
高度4000ftの曇り
弱いにわか雨, 靄
20日の 1800時(UTC)から
の風 10kt、最大20ktの突風を伴う
視程: 10km
高度800ftの雲は散在している
高度2000ftの雲は散在している
高度5000ftの千切れ雲あり
20日の 18時(UTC)から 21日の 01時(UTC)まで一時的に
視程: 8.0km
高度800ftの千切れ雲あり
高度2000ftの千切れ雲あり
弱いにわか雨, 靄

TAF: CYXT 201238Z 2013/2101 18015G25KT P6SM SCT006 SCT015 OVC040 TEMPO 2013/2018 5SM -SHRA BR BKN006 BKN015 OVC040 FM201800 18010G20KT P6SM SCT008 SCT020 BKN050 TEMPO 2018/2101 5SM -SHRA BR BKN008 BKN020 RMK NXT FCST BY 201900Z

4,000以上の空港の気象観測と天気予報(METAR報とTAF報)

利用可能な観測所は地図上に黄色い丸と赤い丸で示す。

丸の上にカーソルを重ねると観測所名を参照できる。

次にクリックすると気象観測と天気予報を参照できる。

マップの切り替え:黒色「×」印の緑ボタンをクリックして拡大、「-」印の緑ボタンをクリックして縮小、緑色の三角印をクリックして隣りの地図に切り替え


METAR-TAF: